createdAt,value
2018-10-04T00:00:45.850Z,15.99
2018-10-04T00:03:13.138Z,16.16
2018-10-04T00:05:40.472Z,15.86
2018-10-04T00:08:07.848Z,16.05
2018-10-04T00:10:35.131Z,16.25
2018-10-04T00:13:02.418Z,16.41
2018-10-04T00:15:29.784Z,16.35
2018-10-04T00:17:57.240Z,16.28
2018-10-04T00:20:25.520Z,16.40
2018-10-04T00:22:52.835Z,16.25
2018-10-04T00:25:20.138Z,16.32
2018-10-04T00:27:47.994Z,16.21
2018-10-04T00:30:15.342Z,16.28
2018-10-04T00:32:42.704Z,15.99
2018-10-04T00:35:10.304Z,16.16
2018-10-04T00:37:37.680Z,15.89
2018-10-04T00:40:05.204Z,16.30
2018-10-04T00:42:32.506Z,16.23
2018-10-04T00:44:59.776Z,16.35
2018-10-04T00:47:27.575Z,16.49
2018-10-04T00:49:54.878Z,16.45
2018-10-04T00:52:22.209Z,16.48
2018-10-04T00:54:49.696Z,16.47
2018-10-04T00:57:17.041Z,16.46
2018-10-04T00:59:44.331Z,16.50
2018-10-04T01:02:11.699Z,16.40
2018-10-04T01:04:39.007Z,16.54
2018-10-04T01:07:06.271Z,16.54
2018-10-04T01:09:33.629Z,16.46
2018-10-04T01:12:00.996Z,16.56
2018-10-04T01:14:28.288Z,16.18
2018-10-04T01:16:55.579Z,16.25
2018-10-04T01:19:22.952Z,16.40
2018-10-04T01:21:50.245Z,16.38
2018-10-04T01:24:17.476Z,16.39
2018-10-04T01:26:45.430Z,15.93
2018-10-04T01:29:12.701Z,16.33
2018-10-04T01:31:40.119Z,16.38
2018-10-04T01:34:07.414Z,16.38
2018-10-04T01:36:35.496Z,16.19
2018-10-04T01:39:03.684Z,16.18
2018-10-04T01:41:33.904Z,15.94
2018-10-04T01:44:01.161Z,16.02
2018-10-04T01:46:28.463Z,15.93
2018-10-04T01:48:55.868Z,16.11
2018-10-04T01:51:23.186Z,15.93
2018-10-04T01:53:50.494Z,15.98
2018-10-04T01:56:17.798Z,15.99
2018-10-04T01:58:45.020Z,15.79
2018-10-04T02:01:12.359Z,15.89
2018-10-04T02:03:39.622Z,16.03
2018-10-04T02:06:06.937Z,15.96
2018-10-04T02:08:34.516Z,15.90
2018-10-04T02:11:01.860Z,16.03
2018-10-04T02:13:29.151Z,16.19
2018-10-04T02:15:56.427Z,16.29
2018-10-04T02:18:23.673Z,16.16
2018-10-04T02:20:51.100Z,16.24
2018-10-04T02:23:18.350Z,16.13
2018-10-04T02:25:45.735Z,16.12
2018-10-04T02:28:13.036Z,16.00
2018-10-04T02:30:40.995Z,15.98
2018-10-04T02:33:08.286Z,16.17
2018-10-04T02:35:36.627Z,16.24
2018-10-04T02:38:04.143Z,16.43
2018-10-04T02:40:31.412Z,16.61
2018-10-04T02:42:58.695Z,16.73
2018-10-04T02:45:25.933Z,16.41
2018-10-04T02:47:53.220Z,16.44
2018-10-04T02:50:20.478Z,16.71
2018-10-04T02:52:47.761Z,16.85
2018-10-04T02:55:20.773Z,16.87
2018-10-04T02:57:48.166Z,16.71
2018-10-04T03:00:15.516Z,16.47
2018-10-04T03:02:42.768Z,16.59
2018-10-04T03:05:10.129Z,16.60
2018-10-04T03:07:37.526Z,16.37
2018-10-04T03:10:05.172Z,16.67
2018-10-04T03:12:32.504Z,16.37
2018-10-04T03:14:59.863Z,16.54
2018-10-04T03:17:27.238Z,16.71
2018-10-04T03:19:54.556Z,16.49
2018-10-04T03:22:21.842Z,17.05
2018-10-04T03:24:49.195Z,16.34
2018-10-04T03:27:16.500Z,16.73
2018-10-04T03:29:43.816Z,17.05
2018-10-04T03:32:11.089Z,16.94
2018-10-04T03:34:38.412Z,16.88
2018-10-04T03:37:05.678Z,16.58
2018-10-04T03:39:33.006Z,16.97
2018-10-04T03:42:00.543Z,16.48
2018-10-04T03:44:27.928Z,16.89
2018-10-04T03:46:55.132Z,17.05
2018-10-04T03:49:23.531Z,16.58
2018-10-04T03:51:51.564Z,17.23
2018-10-04T03:54:18.829Z,16.74
2018-10-04T03:56:46.108Z,17.24
2018-10-04T03:59:13.547Z,16.70
2018-10-04T04:01:40.987Z,17.24
2018-10-04T04:04:08.454Z,17.28
2018-10-04T04:06:36.382Z,17.63
2018-10-04T04:09:05.254Z,17.17
2018-10-04T04:11:39.740Z,17.02
2018-10-04T04:14:07.071Z,17.12
2018-10-04T04:16:35.098Z,17.18
2018-10-04T04:19:04.544Z,17.13
2018-10-04T04:21:31.911Z,17.26
2018-10-04T04:23:59.252Z,17.34
2018-10-04T04:26:26.599Z,17.07
2018-10-04T04:28:54.028Z,17.40
2018-10-04T04:31:21.613Z,17.09
2018-10-04T04:33:49.209Z,17.02
2018-10-04T04:36:17.458Z,17.02
2018-10-04T04:38:45.553Z,17.05
2018-10-04T04:41:13.419Z,16.77
2018-10-04T04:43:40.836Z,17.25
2018-10-04T04:46:08.160Z,17.65
2018-10-04T04:48:35.810Z,17.37
2018-10-04T04:51:03.084Z,17.26
2018-10-04T04:53:35.140Z,17.44
2018-10-04T04:56:02.556Z,17.75
2018-10-04T04:58:29.985Z,17.87
2018-10-04T05:00:57.484Z,17.84
2018-10-04T05:03:24.771Z,17.60
2018-10-04T05:05:52.035Z,17.64
2018-10-04T05:08:19.542Z,17.41
2018-10-04T05:10:46.963Z,17.57
2018-10-04T05:13:14.291Z,17.79
2018-10-04T05:15:41.700Z,17.81
2018-10-04T05:18:08.940Z,17.76
2018-10-04T05:20:36.211Z,17.72
2018-10-04T05:23:03.596Z,17.21
2018-10-04T05:25:31.054Z,17.41
2018-10-04T05:27:58.425Z,17.66
2018-10-04T05:30:25.676Z,17.29
2018-10-04T05:32:53.102Z,17.65
2018-10-04T05:35:20.568Z,17.67
2018-10-04T05:37:47.886Z,17.51
2018-10-04T05:40:15.277Z,17.48
2018-10-04T05:42:42.658Z,17.12
2018-10-04T05:45:10.177Z,17.63
2018-10-04T05:47:37.498Z,17.37
2018-10-04T05:50:04.854Z,17.59
2018-10-04T05:52:32.185Z,17.95
2018-10-04T05:55:05.763Z,17.47
2018-10-04T05:57:33.275Z,17.05
2018-10-04T06:00:12.019Z,17.68
2018-10-04T06:02:39.311Z,17.73
2018-10-04T06:05:06.805Z,17.38
2018-10-04T06:07:34.301Z,17.72
2018-10-04T06:10:01.647Z,17.62
2018-10-04T06:12:28.919Z,17.88
2018-10-04T06:14:56.329Z,17.66
2018-10-04T06:17:23.683Z,18.00
2018-10-04T06:19:50.960Z,17.76
2018-10-04T06:22:18.687Z,17.75
2018-10-04T06:24:46.042Z,17.95
2018-10-04T06:27:13.382Z,17.82
2018-10-04T06:29:40.764Z,17.82
2018-10-04T06:32:08.200Z,18.26
2018-10-04T06:34:35.498Z,18.16
2018-10-04T06:37:02.779Z,18.15
2018-10-04T06:39:30.543Z,18.17
2018-10-04T06:41:57.892Z,18.37
2018-10-04T06:44:25.123Z,18.21
2018-10-04T06:46:52.467Z,18.29
2018-10-04T06:49:20.132Z,17.85
2018-10-04T06:51:47.397Z,17.91
2018-10-04T06:54:14.721Z,17.79
2018-10-04T06:56:42.127Z,17.63
2018-10-04T06:59:09.672Z,18.15
2018-10-04T07:01:37.094Z,17.76
2018-10-04T07:04:04.393Z,17.69
2018-10-04T07:06:31.765Z,17.70
2018-10-04T07:08:59.137Z,18.21
2018-10-04T07:11:26.507Z,18.00
2018-10-04T07:13:53.774Z,18.23
2018-10-04T07:16:21.074Z,18.30
2018-10-04T07:18:48.324Z,18.13
2018-10-04T07:21:16.112Z,18.06
2018-10-04T07:23:43.945Z,18.00
2018-10-04T07:26:11.340Z,17.99
2018-10-04T07:28:38.700Z,18.56
2018-10-04T07:31:06.648Z,18.22
2018-10-04T07:33:33.961Z,18.59
2018-10-04T07:36:01.282Z,18.39
2018-10-04T07:38:29.574Z,18.75
2018-10-04T07:40:56.903Z,18.89
2018-10-04T07:43:24.407Z,18.93
2018-10-04T07:45:51.756Z,18.10
2018-10-04T07:48:19.203Z,18.61
2018-10-04T07:50:46.617Z,18.52
2018-10-04T07:53:13.895Z,19.05
2018-10-04T07:55:41.278Z,18.85
2018-10-04T07:58:08.669Z,18.90
2018-10-04T08:00:36.106Z,19.20
2018-10-04T08:03:03.403Z,18.67
2018-10-04T08:05:30.775Z,18.58
2018-10-04T08:07:58.179Z,18.25
2018-10-04T08:10:26.075Z,18.48
2018-10-04T08:12:53.653Z,17.97
2018-10-04T08:15:22.542Z,18.44
2018-10-04T08:17:49.990Z,18.33
2018-10-04T08:20:17.311Z,18.35
2018-10-04T08:22:45.393Z,17.78
2018-10-04T08:25:12.617Z,17.42
2018-10-04T08:27:39.988Z,18.03
2018-10-04T08:30:08.775Z,18.27
2018-10-04T08:32:36.123Z,17.71
2018-10-04T08:35:03.481Z,18.23
2018-10-04T08:37:31.064Z,18.40
2018-10-04T08:39:58.498Z,18.56
2018-10-04T08:42:25.920Z,18.57
2018-10-04T08:44:53.196Z,18.49
2018-10-04T08:47:20.572Z,18.48
2018-10-04T08:49:47.895Z,18.92
2018-10-04T08:52:20.681Z,18.45
2018-10-04T08:54:48.097Z,18.72
2018-10-04T08:57:15.504Z,18.39
2018-10-04T08:59:42.895Z,18.20
2018-10-04T09:02:10.244Z,18.48
2018-10-04T09:04:37.606Z,18.64
2018-10-04T09:07:04.978Z,18.23
2018-10-04T09:09:32.270Z,17.88
2018-10-04T09:11:59.685Z,18.41
2018-10-04T09:14:26.995Z,17.78
2018-10-04T09:16:54.392Z,18.37
2018-10-04T09:19:21.777Z,18.66
2018-10-04T09:21:49.107Z,18.94
2018-10-04T09:24:16.493Z,18.61
2018-10-04T09:26:43.779Z,18.59
2018-10-04T09:29:11.979Z,18.94
2018-10-04T09:31:40.726Z,18.89
2018-10-04T09:34:08.699Z,18.36
2018-10-04T09:36:36.199Z,18.91
2018-10-04T09:39:05.787Z,18.81
2018-10-04T09:41:33.171Z,18.69
2018-10-04T09:44:01.357Z,19.23
2018-10-04T09:46:28.648Z,19.38
2018-10-04T09:48:55.951Z,19.36
2018-10-04T09:51:29.013Z,19.77
2018-10-04T09:53:57.259Z,19.56
2018-10-04T09:56:30.273Z,19.50
2018-10-04T09:59:02.823Z,19.59
2018-10-04T10:01:35.915Z,20.22
2018-10-04T10:04:04.081Z,19.64
2018-10-04T10:06:31.442Z,19.96
2018-10-04T10:08:59.748Z,20.00
2018-10-04T10:11:27.495Z,19.89
2018-10-04T10:13:54.769Z,19.76
2018-10-04T10:16:22.421Z,20.32
2018-10-04T10:18:49.749Z,20.15
2018-10-04T10:21:17.054Z,20.50
2018-10-04T10:23:44.384Z,20.66
2018-10-04T10:26:11.663Z,20.86
2018-10-04T10:28:39.035Z,20.98
2018-10-04T10:31:06.287Z,21.12
2018-10-04T10:33:33.835Z,21.29
2018-10-04T10:36:01.351Z,21.05
2018-10-04T10:38:28.999Z,21.28
2018-10-04T10:40:56.385Z,21.16
2018-10-04T10:43:23.705Z,20.56
2018-10-04T10:45:51.058Z,20.38
2018-10-04T10:48:18.924Z,20.48
2018-10-04T10:50:46.255Z,20.56
2018-10-04T10:53:14.078Z,20.84
2018-10-04T10:55:41.482Z,20.17
2018-10-04T10:58:08.810Z,20.37
2018-10-04T11:00:36.093Z,20.53
2018-10-04T11:03:03.381Z,20.47
2018-10-04T11:05:30.628Z,20.48
2018-10-04T11:07:58.055Z,20.14
2018-10-04T11:10:25.324Z,20.14
2018-10-04T11:12:52.824Z,20.65
2018-10-04T11:15:20.145Z,20.49
2018-10-04T11:17:47.551Z,20.61
2018-10-04T11:20:14.865Z,20.92
2018-10-04T11:22:42.207Z,20.90
2018-10-04T11:25:09.643Z,21.15
2018-10-04T11:27:36.938Z,21.37
2018-10-04T11:30:04.547Z,21.31
2018-10-04T11:32:32.044Z,20.97
2018-10-04T11:34:59.339Z,20.96
2018-10-04T11:37:26.603Z,20.99
2018-10-04T11:39:53.923Z,20.60
2018-10-04T11:42:21.261Z,21.11
2018-10-04T11:44:55.173Z,21.05
2018-10-04T11:47:29.963Z,20.75
2018-10-04T11:49:57.386Z,20.84
2018-10-04T11:52:24.717Z,21.18
2018-10-04T11:54:52.540Z,20.59
2018-10-04T11:57:19.876Z,20.69
2018-10-04T11:59:47.170Z,21.02
2018-10-04T12:02:14.561Z,21.41
2018-10-04T12:04:42.538Z,21.91
2018-10-04T12:07:09.919Z,21.41
2018-10-04T12:09:37.270Z,21.88
2018-10-04T12:12:04.557Z,21.61
2018-10-04T12:14:31.907Z,21.66
2018-10-04T12:16:59.156Z,21.18
2018-10-04T12:19:26.573Z,21.45
2018-10-04T12:21:54.587Z,21.75
2018-10-04T12:24:21.995Z,21.93
2018-10-04T12:26:49.492Z,22.10
2018-10-04T12:29:16.869Z,22.38
2018-10-04T12:31:44.328Z,21.74
2018-10-04T12:34:11.673Z,21.90
2018-10-04T12:36:38.956Z,21.86
2018-10-04T12:39:13.983Z,22.22
2018-10-04T12:41:42.085Z,22.14
2018-10-04T12:44:10.145Z,22.48
2018-10-04T12:46:37.455Z,22.56
2018-10-04T12:49:05.243Z,21.76
2018-10-04T12:51:32.657Z,21.88
2018-10-04T12:54:00.587Z,21.68
2018-10-04T12:56:28.067Z,21.42
2018-10-04T12:58:55.438Z,21.76
2018-10-04T13:01:22.739Z,21.83
2018-10-04T13:03:50.073Z,21.53
2018-10-04T13:06:17.389Z,21.86
2018-10-04T13:08:44.689Z,22.14
2018-10-04T13:11:12.490Z,22.09
2018-10-04T13:13:40.143Z,21.78
2018-10-04T13:16:07.633Z,22.14
2018-10-04T13:18:35.449Z,21.82
2018-10-04T13:21:03.015Z,21.68
2018-10-04T13:23:30.117Z,21.67
2018-10-04T13:25:57.535Z,21.37
2018-10-04T13:28:24.868Z,21.75
2018-10-04T13:30:53.006Z,21.41
2018-10-04T13:33:20.309Z,21.59
2018-10-04T13:35:47.599Z,21.34
2018-10-04T13:38:14.926Z,21.35
2018-10-04T13:40:42.274Z,21.88
2018-10-04T13:43:09.602Z,21.67
2018-10-04T13:45:36.886Z,21.83
2018-10-04T13:48:04.264Z,21.78
2018-10-04T13:50:31.618Z,21.81
2018-10-04T13:52:59.007Z,21.65
2018-10-04T13:55:26.320Z,21.45
2018-10-04T13:57:53.908Z,21.67
2018-10-04T14:00:21.212Z,21.85
2018-10-04T14:02:48.808Z,21.71
2018-10-04T14:05:16.143Z,22.18
2018-10-04T14:07:43.505Z,22.33
2018-10-04T14:10:10.777Z,21.81
2018-10-04T14:12:38.073Z,21.90
2018-10-04T14:15:05.357Z,21.63
2018-10-04T14:17:32.718Z,21.91
2018-10-04T14:20:00.066Z,21.74
2018-10-04T14:22:27.386Z,22.18
2018-10-04T14:24:54.785Z,21.88
2018-10-04T14:27:22.074Z,21.84
2018-10-04T14:29:49.674Z,21.48
2018-10-04T14:32:16.999Z,21.87
2018-10-04T14:34:44.251Z,21.51
2018-10-04T14:37:11.541Z,21.50
2018-10-04T14:39:38.844Z,21.33
2018-10-04T14:42:06.583Z,21.44
2018-10-04T14:44:40.772Z,21.50
2018-10-04T14:47:08.139Z,21.51
2018-10-04T14:49:35.701Z,21.48
2018-10-04T14:52:03.068Z,21.28
2018-10-04T14:54:30.377Z,21.62
2018-10-04T14:56:57.683Z,21.76
2018-10-04T14:59:25.101Z,21.94
2018-10-04T15:01:52.362Z,21.97
2018-10-04T15:04:19.725Z,21.91
2018-10-04T15:06:47.067Z,22.10
2018-10-04T15:09:14.384Z,22.00
2018-10-04T15:11:41.845Z,22.02
2018-10-04T15:14:09.164Z,21.96
2018-10-04T15:16:36.481Z,21.85
2018-10-04T15:19:03.987Z,22.02
2018-10-04T15:21:31.316Z,22.11
2018-10-04T15:23:58.591Z,22.37
2018-10-04T15:26:26.028Z,22.40
2018-10-04T15:28:53.468Z,22.48
2018-10-04T15:31:20.788Z,22.06
2018-10-04T15:33:48.172Z,22.18
2018-10-04T15:36:15.579Z,22.11
2018-10-04T15:38:43.081Z,22.31
2018-10-04T15:41:10.508Z,22.33
2018-10-04T15:43:37.933Z,22.74
2018-10-04T15:46:05.681Z,23.08
2018-10-04T15:48:33.078Z,23.05
2018-10-04T15:51:00.462Z,23.30
2018-10-04T15:53:27.995Z,23.04
2018-10-04T15:55:55.359Z,22.98
2018-10-04T15:58:22.785Z,22.79
2018-10-04T16:00:50.268Z,23.19
2018-10-04T16:03:17.952Z,23.38
2018-10-04T16:05:45.240Z,23.16
2018-10-04T16:08:12.644Z,22.66
2018-10-04T16:10:40.993Z,22.61
2018-10-04T16:13:08.935Z,22.81
2018-10-04T16:15:43.633Z,22.89
2018-10-04T16:18:11.035Z,22.92
2018-10-04T16:20:38.333Z,22.71
2018-10-04T16:23:05.627Z,22.57
2018-10-04T16:25:32.945Z,22.46
2018-10-04T16:28:00.304Z,22.26
2018-10-04T16:30:27.679Z,22.38
2018-10-04T16:32:54.967Z,22.25
2018-10-04T16:35:22.294Z,22.02
2018-10-04T16:37:49.537Z,22.18
2018-10-04T16:40:16.884Z,22.25
2018-10-04T16:42:44.591Z,21.88
2018-10-04T16:45:12.140Z,21.74
2018-10-04T16:47:39.773Z,22.04
2018-10-04T16:50:07.641Z,21.98
2018-10-04T16:52:35.005Z,22.16
2018-10-04T16:55:02.483Z,22.13
2018-10-04T16:57:29.920Z,22.00
2018-10-04T16:59:57.509Z,21.88
2018-10-04T17:02:24.894Z,21.55
2018-10-04T17:04:52.302Z,21.79
2018-10-04T17:07:19.669Z,21.81
2018-10-04T17:09:46.928Z,21.90
2018-10-04T17:12:14.328Z,21.78
2018-10-04T17:14:41.955Z,21.75
2018-10-04T17:17:09.326Z,21.76
2018-10-04T17:19:36.712Z,21.99
2018-10-04T17:22:04.175Z,22.00
2018-10-04T17:24:31.583Z,21.81
2018-10-04T17:26:59.025Z,21.69
2018-10-04T17:29:26.704Z,21.31
2018-10-04T17:31:54.007Z,21.46
2018-10-04T17:34:21.366Z,21.59
2018-10-04T17:36:48.767Z,21.73
2018-10-04T17:39:16.260Z,21.50
2018-10-04T17:41:43.607Z,21.79
2018-10-04T17:44:11.091Z,21.67
2018-10-04T17:46:38.409Z,21.30
2018-10-04T17:49:05.925Z,21.72
2018-10-04T17:51:33.343Z,21.72
2018-10-04T17:54:00.749Z,21.84
2018-10-04T17:56:28.085Z,21.43
2018-10-04T17:58:55.490Z,21.61
2018-10-04T18:01:22.862Z,21.20
2018-10-04T18:03:50.160Z,21.42
2018-10-04T18:06:17.828Z,21.17
2018-10-04T18:08:45.092Z,21.46
2018-10-04T18:11:12.400Z,21.44
2018-10-04T18:13:39.739Z,21.33
2018-10-04T18:16:07.101Z,21.30
2018-10-04T18:18:34.418Z,21.36
2018-10-04T18:21:01.712Z,21.51
2018-10-04T18:23:29.098Z,21.54
2018-10-04T18:25:56.467Z,21.49
2018-10-04T18:28:23.784Z,21.28
2018-10-04T18:30:51.086Z,21.45
2018-10-04T18:33:18.411Z,21.51
2018-10-04T18:35:45.705Z,21.49
2018-10-04T18:38:13.036Z,21.43
2018-10-04T18:40:40.386Z,21.29
2018-10-04T18:43:07.710Z,21.45
2018-10-04T18:45:35.097Z,21.33
2018-10-04T18:48:02.407Z,21.29
2018-10-04T18:50:29.773Z,21.29
2018-10-04T18:52:57.131Z,21.40
2018-10-04T18:55:24.465Z,21.32
2018-10-04T18:57:51.868Z,21.19
2018-10-04T19:00:19.149Z,21.22
2018-10-04T19:02:46.501Z,21.23
2018-10-04T19:05:13.791Z,21.14
2018-10-04T19:07:41.116Z,21.36
2018-10-04T19:10:08.513Z,21.21
2018-10-04T19:12:35.864Z,21.28
2018-10-04T19:15:03.279Z,21.11
2018-10-04T19:17:30.704Z,21.20
2018-10-04T19:19:57.959Z,21.26
2018-10-04T19:22:25.235Z,21.25
2018-10-04T19:24:52.617Z,20.92
2018-10-04T19:27:20.119Z,21.16
2018-10-04T19:29:47.569Z,21.07
2018-10-04T19:32:14.866Z,21.24
2018-10-04T19:34:42.218Z,21.18
2018-10-04T19:37:09.636Z,21.25
2018-10-04T19:39:37.020Z,21.22
2018-10-04T19:42:04.494Z,21.20
2018-10-04T19:44:32.305Z,21.10
2018-10-04T19:46:59.702Z,21.16
2018-10-04T19:49:27.050Z,21.12
2018-10-04T19:51:54.378Z,21.13
2018-10-04T19:54:21.827Z,21.14
2018-10-04T19:56:49.250Z,21.08
2018-10-04T19:59:16.696Z,21.16
2018-10-04T20:01:44.059Z,21.29
2018-10-04T20:04:11.367Z,21.08
2018-10-04T20:06:38.715Z,21.23
2018-10-04T20:09:07.287Z,21.10
2018-10-04T20:11:34.728Z,21.16
2018-10-04T20:14:01.968Z,21.18
2018-10-04T20:16:29.336Z,21.02
2018-10-04T20:18:56.650Z,21.16
2018-10-04T20:21:23.893Z,21.12
2018-10-04T20:23:51.495Z,21.04
2018-10-04T20:26:18.802Z,21.14
2018-10-04T20:28:46.105Z,20.78
2018-10-04T20:31:13.402Z,20.88
2018-10-04T20:33:40.734Z,21.06
2018-10-04T20:36:08.081Z,21.15
2018-10-04T20:38:35.400Z,20.89
2018-10-04T20:41:02.739Z,21.03
2018-10-04T20:43:30.112Z,21.06
2018-10-04T20:45:57.457Z,21.16
2018-10-04T20:48:24.785Z,21.13
2018-10-04T20:50:52.071Z,21.03
2018-10-04T20:53:19.689Z,21.21
2018-10-04T20:55:47.034Z,21.06
2018-10-04T20:58:14.429Z,21.03
2018-10-04T21:00:41.730Z,21.04
2018-10-04T21:03:08.996Z,21.31
2018-10-04T21:05:36.297Z,21.07
2018-10-04T21:08:03.659Z,21.20
2018-10-04T21:10:31.046Z,21.20
2018-10-04T21:12:58.409Z,21.10
2018-10-04T21:15:25.739Z,21.06
2018-10-04T21:17:53.137Z,21.01
2018-10-04T21:20:20.553Z,21.06
2018-10-04T21:22:47.952Z,21.10
2018-10-04T21:25:15.264Z,20.95
2018-10-04T21:27:42.676Z,21.03
2018-10-04T21:30:10.284Z,21.02
2018-10-04T21:32:37.810Z,20.96
2018-10-04T21:35:05.173Z,20.92
2018-10-04T21:37:32.524Z,20.90
2018-10-04T21:39:59.861Z,20.89
2018-10-04T21:42:27.159Z,20.87
2018-10-04T21:44:54.436Z,20.70
2018-10-04T21:47:21.768Z,20.87
2018-10-04T21:49:49.163Z,20.80
2018-10-04T21:52:16.556Z,20.91
2018-10-04T21:54:43.882Z,20.88
2018-10-04T21:57:11.250Z,20.76
2018-10-04T21:59:38.511Z,20.69
2018-10-04T22:02:05.803Z,20.70
2018-10-04T22:04:33.124Z,20.80
2018-10-04T22:07:00.450Z,20.73
2018-10-04T22:09:27.812Z,20.68
2018-10-04T22:11:55.255Z,20.78
2018-10-04T22:14:22.540Z,20.61
2018-10-04T22:16:50.382Z,20.73
2018-10-04T22:19:17.670Z,20.84
2018-10-04T22:21:45.025Z,20.78
2018-10-04T22:24:12.687Z,20.69
2018-10-04T22:26:39.999Z,20.67
2018-10-04T22:29:07.300Z,20.62
2018-10-04T22:31:34.703Z,20.57
2018-10-04T22:34:02.507Z,20.42
2018-10-04T22:36:29.791Z,20.44
2018-10-04T22:38:57.099Z,20.37
2018-10-04T22:41:24.374Z,20.31
2018-10-04T22:43:51.737Z,20.27
2018-10-04T22:46:19.102Z,20.30
2018-10-04T22:48:46.437Z,20.20
2018-10-04T22:51:13.855Z,20.19
2018-10-04T22:53:41.239Z,20.26
2018-10-04T22:56:08.554Z,20.19
2018-10-04T22:58:35.844Z,20.06
2018-10-04T23:01:03.264Z,20.00
2018-10-04T23:03:30.764Z,19.83
2018-10-04T23:05:58.460Z,19.77
2018-10-04T23:08:25.735Z,19.84
2018-10-04T23:10:53.075Z,19.91
2018-10-04T23:13:20.438Z,19.82
2018-10-04T23:15:47.704Z,19.78
2018-10-04T23:18:15.008Z,19.59
2018-10-04T23:20:42.342Z,19.60
2018-10-04T23:23:09.646Z,19.52
2018-10-04T23:25:36.934Z,19.46
2018-10-04T23:28:04.225Z,19.33
2018-10-04T23:30:31.549Z,19.19
2018-10-04T23:32:58.827Z,19.25
2018-10-04T23:35:26.138Z,19.41
2018-10-04T23:37:53.462Z,19.24
2018-10-04T23:40:20.807Z,19.20
2018-10-04T23:42:48.148Z,19.04
2018-10-04T23:45:15.473Z,18.95
2018-10-04T23:47:42.932Z,18.93
2018-10-04T23:50:10.262Z,18.89
2018-10-04T23:52:37.539Z,18.73
2018-10-04T23:55:05.151Z,18.61
2018-10-04T23:57:32.469Z,18.60
2018-10-04T23:59:59.757Z,18.63
